Time;durP1;ratioP1;P1;durP2;ratioP2;P2;SDS_P1;SDS_P2;PMS_P1;PMS_P2;Temp;Humidity;BMP_temperature;BMP_pressure;BME280_temperature;BME280_humidity;BME280_pressure;Samples;Min_cycle;Max_cycle;Signal;HPM_P1;HPM_P2
2021/04/12 00:00:43;;;;;;;1.48;1.38;;;11.50;82.10;;;;;;5074030;28;20217;-87
2021/04/12 00:03:15;;;;;;;1.13;1.13;;;11.60;81.20;;;;;;5067886;28;20245;-88
2021/04/12 00:06:20;;;;;;;1.23;1.13;;;11.50;81.30;;;;;;5068245;28;20216;-88
2021/04/12 00:08:53;;;;;;;2.63;1.17;;;11.50;81.50;;;;;;5068094;28;20339;-88
2021/04/12 00:11:32;;;;;;;0.98;0.93;;;11.40;82.20;;;;;;5068474;28;20211;-88
2021/04/12 00:14:21;;;;;;;1.50;1.30;;;11.30;83.70;;;;;;5050846;28;20279;-87
2021/04/12 00:17:28;;;;;;;1.25;1.00;;;11.40;82.50;;;;;;5068592;28;20200;-88
2021/04/12 00:20:08;;;;;;;1.15;1.15;;;11.40;82.30;;;;;;5065619;28;20206;-87
2021/04/12 00:22:39;;;;;;;1.20;1.15;;;11.30;82.20;;;;;;5067825;28;20221;-88
2021/04/12 00:25:13;;;;;;;1.35;1.25;;;11.50;82.00;;;;;;5107983;28;20200;-87
2021/04/12 00:27:43;;;;;;;1.95;1.83;;;11.40;82.00;;;;;;5093707;28;20189;-87
2021/04/12 00:30:16;;;;;;;1.45;1.27;;;11.40;82.20;;;;;;5086924;28;20193;-88
2021/04/12 00:32:47;;;;;;;1.50;1.33;;;11.40;82.00;;;;;;5086807;28;20201;-88
2021/04/12 00:35:20;;;;;;;1.52;1.40;;;11.40;82.20;;;;;;5086184;28;20227;-88
2021/04/12 00:37:50;;;;;;;1.83;1.55;;;11.40;82.40;;;;;;5105356;28;20213;-88
2021/04/12 00:43:13;;;;;;;1.15;1.15;;;11.40;82.40;;;;;;5118460;22;20216;-88
2021/04/12 00:46:04;;;;;;;1.40;1.30;;;11.30;82.10;;;;;;5085169;28;20555;-88
2021/04/12 00:49:03;;;;;;;1.27;1.20;;;11.30;82.60;;;;;;5079145;28;20569;-88
2021/04/12 00:51:48;;;;;;;1.58;1.45;;;11.30;82.40;;;;;;5089199;28;20193;-88
2021/04/12 00:54:52;;;;;;;1.40;1.30;;;11.10;83.20;;;;;;5086159;28;20220;-88
2021/04/12 00:57:41;;;;;;;1.33;1.23;;;11.00;83.30;;;;;;5086627;28;20224;-91
2021/04/12 01:00:14;;;;;;;1.30;1.20;;;10.90;84.30;;;;;;5087447;28;20204;-88
2021/04/12 01:02:55;;;;;;;1.40;1.30;;;11.10;83.20;;;;;;5083234;28;20233;-89
2021/04/12 01:05:33;;;;;;;1.50;1.40;;;11.10;82.70;;;;;;5077330;28;20413;-89
2021/04/12 01:08:44;;;;;;;1.33;1.23;;;11.20;82.70;;;;;;5079033;28;20228;-91
2021/04/12 01:11:48;;;;;;;1.40;1.30;;;11.20;82.10;;;;;;5061105;28;20613;-91
2021/04/12 01:14:59;;;;;;;1.73;1.20;;;11.20;82.60;;;;;;5094862;28;20224;-89
2021/04/12 01:17:58;;;;;;;1.30;1.25;;;11.20;82.00;;;;;;5061918;28;20201;-88
2021/04/12 01:20:48;;;;;;;1.10;1.10;;;11.20;82.10;;;;;;5082643;28;20253;-89
2021/04/12 01:24:02;;;;;;;1.10;1.10;;;11.10;81.90;;;;;;5063772;28;20222;-88
2021/04/12 01:27:07;;;;;;;1.08;1.08;;;11.20;81.80;;;;;;5065529;28;20200;-89
2021/04/12 01:30:12;;;;;;;1.13;1.10;;;11.10;82.20;;;;;;5081578;28;20236;-89
2021/04/12 01:33:11;;;;;;;1.10;1.10;;;11.20;81.20;;;;;;5084778;28;20189;-89
2021/04/12 01:36:19;;;;;;;1.20;1.10;;;11.30;80.40;;;;;;5077189;28;20236;-89
2021/04/12 01:39:12;;;;;;;1.05;1.05;;;11.30;79.80;;;;;;5082093;28;20243;-89
2021/04/12 01:41:52;;;;;;;1.27;1.20;;;11.20;80.80;;;;;;5083365;28;20209;-88
2021/04/12 01:44:28;;;;;;;1.30;1.05;;;11.10;80.90;;;;;;5063677;28;20237;-88
2021/04/12 01:47:07;;;;;;;1.30;1.20;;;11.00;80.10;;;;;;5082906;28;20239;-89
2021/04/12 01:49:48;;;;;;;1.20;1.10;;;11.00;80.90;;;;;;5084389;28;20242;-88
2021/04/12 01:52:26;;;;;;;1.30;1.10;;;11.10;80.60;;;;;;5071770;28;20192;-89
2021/04/12 01:55:08;;;;;;;2.30;1.00;;;11.00;80.80;;;;;;5082611;28;20225;-89
2021/04/12 02:00:55;;;;;;;1.17;1.00;;;11.10;79.90;;;;;;5065432;28;20223;-89
2021/04/12 02:03:36;;;;;;;1.40;1.20;;;11.00;79.50;;;;;;5092991;28;20228;-89
2021/04/12 02:06:45;;;;;;;1.30;1.20;;;11.00;79.60;;;;;;5081280;28;20193;-89
2021/04/12 02:09:39;;;;;;;1.10;1.10;;;10.90;79.40;;;;;;5081675;28;20232;-89
2021/04/12 02:12:15;;;;;;;1.40;1.30;;;10.80;80.40;;;;;;5082768;28;20201;-90
2021/04/12 02:14:52;;;;;;;1.60;1.50;;;10.70;80.60;;;;;;5082025;28;20236;-89
2021/04/12 02:17:32;;;;;;;1.42;1.33;;;10.70;81.10;;;;;;5082606;28;20201;-89
2021/04/12 02:20:09;;;;;;;1.52;1.42;;;10.70;81.20;;;;;;5081934;28;20295;-89
2021/04/12 02:23:15;;;;;;;1.65;1.55;;;10.70;80.80;;;;;;5081963;28;20185;-88
2021/04/12 02:25:55;;;;;;;1.45;1.35;;;10.70;81.10;;;;;;5079822;28;20706;-90
2021/04/12 02:28:39;;;;;;;1.60;1.50;;;10.70;81.50;;;;;;5069095;28;20249;-88
2021/04/12 02:31:21;;;;;;;1.90;1.80;;;10.70;81.60;;;;;;5081580;28;20285;-89
2021/04/12 02:33:57;;;;;;;1.83;1.73;;;10.80;81.60;;;;;;5081672;28;20279;-89
2021/04/12 02:36:36;;;;;;;1.95;1.80;;;10.90;81.30;;;;;;5078319;28;20204;-89
2021/04/12 02:39:12;;;;;;;2.22;2.03;;;11.00;80.40;;;;;;5072535;28;20240;-89
2021/04/12 02:42:01;;;;;;;2.20;2.10;;;10.90;80.30;;;;;;5082850;28;20196;-89
2021/04/12 02:45:04;;;;;;;2.30;2.20;;;10.80;81.30;;;;;;5082861;28;20251;-88
2021/04/12 02:47:57;;;;;;;2.60;2.40;;;10.80;81.80;;;;;;5082665;28;20197;-89
2021/04/12 02:50:58;;;;;;;2.72;2.05;;;10.80;81.10;;;;;;5082473;28;20205;-88
2021/04/12 02:54:00;;;;;;;2.63;2.42;;;10.70;82.10;;;;;;5059770;28;20216;-89
2021/04/12 02:56:40;;;;;;;6.30;3.15;;;10.60;82.60;;;;;;5081755;28;20205;-89
2021/04/12 02:59:33;;;;;;;10.77;3.30;;;10.70;82.90;;;;;;5080540;28;20217;-88
2021/04/12 03:02:30;;;;;;;10.52;3.40;;;10.70;82.90;;;;;;5080830;28;20216;-89
2021/04/12 03:05:21;;;;;;;9.18;3.03;;;10.70;82.90;;;;;;5071152;28;20227;-88
2021/04/12 03:08:27;;;;;;;3.38;3.08;;;10.70;83.20;;;;;;5072591;28;20202;-89
2021/04/12 03:11:26;;;;;;;3.50;3.30;;;10.70;82.80;;;;;;5075559;28;20679;-90
2021/04/12 03:14:49;;;;;;;4.22;3.85;;;10.70;83.00;;;;;;5067367;28;20290;-88
2021/04/12 03:17:38;;;;;;;4.28;3.75;;;10.60;84.10;;;;;;5079063;28;20204;-89
2021/04/12 03:20:28;;;;;;;5.00;4.60;;;10.70;84.00;;;;;;5076467;28;20682;-89
2021/04/12 03:23:14;;;;;;;4.78;4.28;;;10.60;84.70;;;;;;5079187;28;20224;-89
2021/04/12 03:26:01;;;;;;;7.95;5.65;;;10.70;84.50;;;;;;5080968;28;20193;-89
2021/04/12 03:28:50;;;;;;;8.00;6.90;;;10.80;85.20;;;;;;5079548;28;20235;-89
2021/04/12 03:31:32;;;;;;;7.05;6.45;;;10.60;85.80;;;;;;5069709;28;20261;-89
2021/04/12 03:34:17;;;;;;;7.40;6.20;;;10.50;87.40;;;;;;5079783;28;20223;-90
2021/04/12 03:37:14;;;;;;;7.40;6.57;;;10.30;89.20;;;;;;5078873;28;20242;-88
2021/04/12 03:39:47;;;;;;;6.90;6.20;;;10.30;89.50;;;;;;5075126;28;20672;-88
2021/04/12 03:42:34;;;;;;;6.15;5.55;;;10.30;88.70;;;;;;5079855;28;20209;-89
2021/04/12 03:45:21;;;;;;;5.40;4.90;;;10.30;88.50;;;;;;5079787;28;20657;-90
2021/04/12 03:48:19;;;;;;;5.47;4.97;;;10.30;84.70;;;;;;5080135;28;20223;-88
2021/04/12 03:51:22;;;;;;;5.03;4.38;;;10.20;84.00;;;;;;5015994;28;20204;-90
2021/04/12 03:54:15;;;;;;;4.80;4.40;;;10.10;82.90;;;;;;5079271;28;20232;-88
2021/04/12 03:56:56;;;;;;;5.80;5.28;;;10.10;83.40;;;;;;5075557;28;20201;-88
2021/04/12 03:59:38;;;;;;;5.55;5.03;;;10.10;83.00;;;;;;5078797;28;20229;-88
2021/04/12 04:02:37;;;;;;;5.20;4.70;;;10.10;83.50;;;;;;5065488;28;20192;-89
2021/04/12 04:05:42;;;;;;;5.60;4.70;;;10.10;84.00;;;;;;5079357;28;20348;-89
2021/04/12 04:08:24;;;;;;;4.90;4.40;;;10.10;84.30;;;;;;5085433;28;20224;-88
2021/04/12 04:11:33;;;;;;;4.90;4.50;;;10.10;82.90;;;;;;5079951;28;20189;-89
2021/04/12 04:14:15;;;;;;;4.97;4.57;;;10.10;82.50;;;;;;5079117;28;20225;-90
2021/04/12 04:17:05;;;;;;;5.07;4.60;;;10.00;83.60;;;;;;5080613;28;20533;-88
2021/04/12 04:19:50;;;;;;;4.50;4.10;;;9.80;86.20;;;;;;5080047;28;20229;-89
2021/04/12 04:22:47;;;;;;;5.38;4.88;;;9.70;87.00;;;;;;5060528;28;20197;-88
2021/04/12 04:25:48;;;;;;;5.90;5.40;;;9.60;88.90;;;;;;5078941;28;20213;-89
2021/04/12 04:28:40;;;;;;;7.03;6.37;;;9.60;90.10;;;;;;5078205;28;20239;-91
2021/04/12 04:31:34;;;;;;;8.63;6.53;;;9.40;90.50;;;;;;5075944;28;20201;-89
2021/04/12 04:34:14;;;;;;;6.90;6.20;;;9.20;91.00;;;;;;5073926;28;20281;-90
2021/04/12 04:36:55;;;;;;;6.47;5.87;;;9.10;91.70;;;;;;5076207;28;20212;-91
2021/04/12 04:39:48;;;;;;;7.27;6.57;;;8.90;92.50;;;;;;5075629;28;20225;-90
2021/04/12 04:42:47;;;;;;;7.40;6.70;;;8.70;93.70;;;;;;5079061;28;20208;-89
2021/04/12 04:45:23;;;;;;;6.00;5.40;;;8.70;94.10;;;;;;5069384;28;20588;-89
2021/04/12 04:48:27;;;;;;;6.37;5.77;;;8.60;94.30;;;;;;5076198;28;21236;-88
2021/04/12 04:51:29;;;;;;;6.57;5.87;;;8.40;94.50;;;;;;5079358;28;20193;-87
2021/04/12 04:54:23;;;;;;;6.90;6.00;;;8.40;95.20;;;;;;5075623;28;20227;-88
2021/04/12 04:57:05;;;;;;;6.77;5.87;;;8.30;95.80;;;;;;5075117;28;20197;-86
2021/04/12 04:59:51;;;;;;;4.97;4.47;;;8.30;95.80;;;;;;5070471;28;21566;-87
2021/04/12 05:02:32;;;;;;;4.37;3.90;;;8.20;95.70;;;;;;5072573;28;20589;-86
2021/04/12 05:05:24;;;;;;;4.53;4.13;;;8.00;95.70;;;;;;5070840;28;20219;-87
2021/04/12 05:08:45;;;;;;;3.53;3.23;;;7.80;96.10;;;;;;5074140;28;20244;-85
2021/04/12 05:11:36;;;;;;;3.93;3.60;;;7.60;95.60;;;;;;5078534;28;20230;-87
2021/04/12 05:14:35;;;;;;;3.90;3.23;;;7.30;95.50;;;;;;5073516;28;20225;-86
2021/04/12 05:17:20;;;;;;;3.50;3.20;;;7.00;95.50;;;;;;5077236;28;20258;-84
2021/04/12 05:20:00;;;;;;;3.83;3.43;;;6.80;95.70;;;;;;5076780;28;20562;-86
2021/04/12 05:23:00;;;;;;;4.37;3.80;;;6.70;96.50;;;;;;5074474;28;20193;-87
2021/04/12 05:25:45;;;;;;;4.40;4.00;;;6.60;97.20;;;;;;5074745;28;20221;-85
2021/04/12 05:28:32;;;;;;;4.80;3.60;;;6.60;97.40;;;;;;5078389;28;20572;-83
2021/04/12 05:31:36;;;;;;;3.60;3.30;;;6.50;96.60;;;;;;5075559;28;20202;-86
2021/04/12 05:34:38;;;;;;;3.00;2.70;;;6.20;96.60;;;;;;5040182;28;20232;-86
2021/04/12 05:37:20;;;;;;;2.90;2.70;;;6.00;96.30;;;;;;5077363;28;20193;-84
2021/04/12 05:40:08;;;;;;;3.10;2.80;;;5.80;95.80;;;;;;5078880;28;20607;-84
2021/04/12 05:42:53;;;;;;;2.83;2.63;;;5.70;97.10;;;;;;5072257;28;20200;-84
2021/04/12 05:45:52;;;;;;;2.63;2.30;;;5.60;96.40;;;;;;5073502;28;20209;-86
2021/04/12 05:48:42;;;;;;;2.17;1.97;;;5.50;96.50;;;;;;5064322;28;20225;-86
2021/04/12 05:51:34;;;;;;;2.47;2.27;;;5.30;96.10;;;;;;5070236;28;20201;-85
2021/04/12 05:54:29;;;;;;;2.47;2.27;;;5.00;95.80;;;;;;5074459;28;20225;-88
2021/04/12 05:57:24;;;;;;;1.60;1.50;;;4.90;95.50;;;;;;5071885;28;20194;-85
2021/04/12 06:00:27;;;;;;;1.70;1.60;;;4.60;95.30;;;;;;5068074;28;20225;-89
2021/04/12 06:03:14;;;;;;;1.73;1.50;;;4.60;96.10;;;;;;5066578;28;20228;-85
2021/04/12 06:06:14;;;;;;;1.60;1.50;;;4.30;95.60;;;;;;5075976;28;20208;-85
2021/04/12 06:08:56;;;;;;;1.90;1.80;;;4.20;95.40;;;;;;5076920;28;20293;-85
2021/04/12 06:11:54;;;;;;;2.10;1.90;;;4.20;96.10;;;;;;5072116;28;20204;-84
2021/04/12 06:15:07;;;;;;;2.00;1.90;;;4.20;94.90;;;;;;5074854;28;20251;-85
2021/04/12 06:17:49;;;;;;;1.83;1.73;;;4.20;95.20;;;;;;5080615;28;20540;-84
2021/04/12 06:20:49;;;;;;;2.00;1.80;;;4.20;94.90;;;;;;5079681;28;20632;-87
2021/04/12 06:23:50;;;;;;;2.27;2.07;;;4.20;94.90;;;;;;5077113;28;20236;-84
2021/04/12 06:26:44;;;;;;;2.20;2.00;;;4.10;94.90;;;;;;5069911;28;20207;-86
2021/04/12 06:29:33;;;;;;;3.23;2.03;;;4.00;94.90;;;;;;5071514;28;20229;-87
2021/04/12 06:32:43;;;;;;;2.47;2.00;;;3.80;95.50;;;;;;5076923;28;20200;-87
2021/04/12 06:35:55;;;;;;;2.23;2.00;;;3.70;95.00;;;;;;5071831;28;20221;-84
2021/04/12 06:38:49;;;;;;;2.87;2.03;;;3.80;95.20;;;;;;5050122;28;20232;-87
2021/04/12 06:41:46;;;;;;;2.20;2.00;;;3.80;95.00;;;;;;5073454;28;20220;-85
2021/04/12 06:44:59;;;;;;;2.20;1.70;;;3.80;95.00;;;;;;5069653;28;20691;-84
2021/04/12 06:48:00;;;;;;;3.23;1.97;;;3.70;94.80;;;;;;5015783;28;20208;-85
2021/04/12 06:51:21;;;;;;;4.40;2.10;;;3.70;95.30;;;;;;5067150;28;20265;-87
2021/04/12 06:54:28;;;;;;;1.90;1.80;;;3.70;95.00;;;;;;4997817;28;20224;-86
2021/04/12 06:57:37;;;;;;;1.97;1.77;;;3.60;94.80;;;;;;5076284;28;20641;-85
2021/04/12 07:03:55;;;;;;;2.20;2.00;;;3.70;94.80;;;;;;5073497;28;20301;-87
2021/04/12 07:06:44;;;;;;;2.60;2.23;;;3.60;94.80;;;;;;5070599;28;20207;-86
2021/04/12 07:09:37;;;;;;;2.40;2.20;;;3.60;94.80;;;;;;5070664;28;20220;-86
2021/04/12 07:12:37;;;;;;;3.33;2.23;;;3.50;94.80;;;;;;5069521;28;20262;-86
2021/04/12 07:15:34;;;;;;;2.40;2.00;;;3.50;95.60;;;;;;5074750;28;20227;-85
2021/04/12 07:18:42;;;;;;;2.43;2.10;;;3.60;94.80;;;;;;5076659;28;20228;-89
2021/04/12 07:21:41;;;;;;;3.20;2.27;;;3.50;95.00;;;;;;5078718;28;20198;-84
2021/04/12 07:24:47;;;;;;;2.23;2.03;;;3.40;94.80;;;;;;5075095;28;20243;-85
2021/04/12 07:27:46;;;;;;;1.90;1.80;;;3.50;95.00;;;;;;5069921;28;20296;-87
2021/04/12 07:31:03;;;;;;;2.30;2.10;;;3.30;94.70;;;;;;5071769;28;20695;-85
2021/04/12 07:33:51;;;;;;;2.13;1.93;;;3.20;95.50;;;;;;5072647;28;20217;-88
2021/04/12 07:36:36;;;;;;;2.20;2.00;;;3.20;95.40;;;;;;5071189;28;20221;-85
2021/04/12 07:39:44;;;;;;;4.00;2.17;;;3.10;96.10;;;;;;5069096;28;20228;-85
2021/04/12 07:42:56;;;;;;;3.80;2.30;;;3.10;96.30;;;;;;5068931;28;20261;-86
2021/04/12 07:46:01;;;;;;;2.30;2.10;;;3.00;96.40;;;;;;5021148;28;20232;-86
2021/04/12 07:49:03;;;;;;;2.30;2.10;;;3.00;96.30;;;;;;5063182;28;20785;-86
2021/04/12 07:51:46;;;;;;;3.33;2.60;;;3.10;96.80;;;;;;5027924;28;20204;-85
2021/04/12 07:54:45;;;;;;;2.60;2.40;;;3.10;96.50;;;;;;5074260;28;20221;-85
2021/04/12 07:57:47;;;;;;;2.67;2.30;;;3.20;96.70;;;;;;5079876;28;20594;-85
2021/04/12 08:00:55;;;;;;;2.97;2.67;;;3.20;96.40;;;;;;5064986;28;20220;-86
2021/04/12 08:04:00;;;;;;;3.03;2.67;;;3.20;96.30;;;;;;5068559;28;20228;-85
2021/04/12 08:07:28;;;;;;;3.67;2.83;;;3.20;96.40;;;;;;5075160;28;20211;-88
2021/04/12 08:10:37;;;;;;;4.23;2.83;;;3.30;96.80;;;;;;5068000;28;20315;-87
2021/04/12 08:13:46;;;;;;;3.87;2.67;;;3.30;96.50;;;;;;5076614;28;20236;-85
2021/04/12 08:16:45;;;;;;;7.50;2.77;;;3.40;97.10;;;;;;5087183;28;20530;-84
2021/04/12 08:19:41;;;;;;;3.80;2.70;;;3.60;96.60;;;;;;5080152;28;20228;-85
2021/04/12 08:22:41;;;;;;;3.13;2.83;;;3.50;96.50;;;;;;5080329;28;20201;-84
2021/04/12 08:25:36;;;;;;;3.27;2.97;;;3.60;96.60;;;;;;5078613;28;20215;-85
2021/04/12 08:28:29;;;;;;;3.27;2.97;;;3.50;95.80;;;;;;5076198;28;20225;-86
2021/04/12 08:31:31;;;;;;;12.83;3.40;;;3.40;96.40;;;;;;5080222;28;20207;-85
2021/04/12 08:34:34;;;;;;;5.13;3.33;;;3.50;96.90;;;;;;5071828;28;20217;-86
2021/04/12 08:37:46;;;;;;;3.67;3.03;;;3.70;96.80;;;;;;5034104;28;20212;-86
2021/04/12 08:40:44;;;;;;;4.83;2.90;;;3.70;96.50;;;;;;5076467;28;20289;-85
2021/04/12 08:43:47;;;;;;;4.40;3.37;;;3.90;96.80;;;;;;5074193;28;20225;-84
2021/04/12 08:46:45;;;;;;;5.20;3.37;;;3.90;96.50;;;;;;5066862;28;20687;-84
2021/04/12 08:49:46;;;;;;;4.20;3.53;;;4.00;96.50;;;;;;5075657;28;20706;-84
2021/04/12 08:52:43;;;;;;;3.30;3.00;;;4.10;96.30;;;;;;5077696;28;20285;-86
2021/04/12 08:55:49;;;;;;;4.70;3.17;;;4.10;95.30;;;;;;5078510;28;20266;-84
2021/04/12 08:59:00;;;;;;;5.53;3.20;;;4.10;95.20;;;;;;5072883;28;20232;-84
2021/04/12 09:02:03;;;;;;;5.87;3.40;;;4.00;94.90;;;;;;5071065;28;20200;-85
2021/04/12 09:05:08;;;;;;;3.87;3.47;;;4.10;96.20;;;;;;5070113;28;20221;-83
2021/04/12 09:08:16;;;;;;;5.30;3.40;;;4.10;95.70;;;;;;5070903;28;20204;-83
2021/04/12 09:11:07;;;;;;;3.97;3.43;;;4.20;96.10;;;;;;5033998;28;20543;-83
2021/04/12 09:13:47;;;;;;;4.60;3.40;;;4.20;95.50;;;;;;5076051;28;20227;-83
2021/04/12 09:16:25;;;;;;;4.30;3.90;;;4.20;95.30;;;;;;5070084;28;20224;-85
2021/04/12 09:19:30;;;;;;;6.33;3.57;;;4.20;95.60;;;;;;5076329;28;20224;-87
2021/04/12 09:22:33;;;;;;;5.93;3.10;;;4.20;94.90;;;;;;5081063;28;20272;-87
2021/04/12 09:25:45;;;;;;;4.43;2.90;;;4.20;94.90;;;;;;5055994;28;20562;-86
2021/04/12 09:28:28;;;;;;;5.47;3.03;;;4.30;94.60;;;;;;5076499;28;20217;-85
2021/04/12 09:31:11;;;;;;;3.50;3.20;;;4.40;93.70;;;;;;5073999;28;20562;-86
2021/04/12 09:34:08;;;;;;;3.70;3.27;;;4.40;94.20;;;;;;5077797;28;20228;-85
2021/04/12 09:36:54;;;;;;;4.03;3.10;;;4.40;94.70;;;;;;5074932;28;20193;-85
2021/04/12 09:39:42;;;;;;;3.77;3.30;;;4.60;95.00;;;;;;5078870;28;20239;-84
2021/04/12 09:42:50;;;;;;;3.17;2.87;;;4.60;93.90;;;;;;5078691;28;20730;-84
2021/04/12 09:45:54;;;;;;;3.27;2.93;;;4.70;93.10;;;;;;5059607;28;20266;-88
2021/04/12 09:48:55;;;;;;;4.20;3.27;;;4.70;93.00;;;;;;5077624;28;20220;-84
2021/04/12 09:51:59;;;;;;;3.03;2.73;;;4.70;93.10;;;;;;5062383;28;20196;-84
2021/04/12 09:58:18;;;;;;;6.97;3.20;;;4.70;92.20;;;;;;5016508;28;20258;-84
2021/04/12 10:01:23;;;;;;;6.50;2.70;;;4.80;91.70;;;;;;5015729;28;20245;-84
2021/04/12 10:04:31;;;;;;;3.23;2.60;;;4.70;91.90;;;;;;5006238;28;20746;-85
2021/04/12 10:07:25;;;;;;;4.77;2.57;;;4.80;91.50;;;;;;5018253;28;20187;-84
2021/04/12 10:10:09;;;;;;;3.37;2.90;;;5.00;91.70;;;;;;5081502;28;20197;-84
2021/04/12 10:16:13;;;;;;;2.60;2.40;;;5.00;89.00;;;;;;5038096;28;20333;-85
2021/04/12 10:25:39;;;;;;;3.63;2.50;;;5.40;89.20;;;;;;5076978;28;20663;-84
2021/04/12 10:31:11;;;;;;;5.50;2.50;;;5.60;87.60;;;;;;5081053;28;20227;-85
2021/04/12 10:33:43;;;;;;;3.27;2.43;;;5.40;86.50;;;;;;5079344;28;20224;-84
2021/04/12 10:36:50;;;;;;;3.40;2.50;;;5.40;89.20;;;;;;5080121;28;20564;-84
2021/04/12 11:05:17;;;;;;;3.90;2.73;;;4.90;89.80;;;;;;6103454;22;20217;-87
2021/04/12 11:08:02;;;;;;;2.73;2.53;;;4.90;90.60;;;;;;5076042;28;20201;-86
2021/04/12 11:13:35;;;;;;;3.20;2.73;;;4.90;90.40;;;;;;5079500;28;20235;-85
2021/04/12 11:16:47;;;;;;;2.90;2.70;;;4.90;90.50;;;;;;5081890;28;20261;-85
2021/04/12 11:19:20;;;;;;;3.87;2.40;;;4.90;89.80;;;;;;5080169;28;20280;-85
2021/04/12 11:25:21;;;;;;;3.17;2.60;;;5.00;89.30;;;;;;4960028;28;20274;-85
2021/04/12 11:28:36;;;;;;;3.27;2.97;;;5.10;89.00;;;;;;4994644;28;20202;-85
2021/04/12 11:31:38;;;;;;;3.67;2.60;;;5.10;90.50;;;;;;5054069;28;20630;-85
2021/04/12 11:34:44;;;;;;;3.10;2.57;;;5.20;90.10;;;;;;5062138;28;20189;-86
2021/04/12 11:37:27;;;;;;;2.80;2.40;;;5.40;89.20;;;;;;5063012;28;20192;-85
2021/04/12 12:24:12;;;;;;;3.80;3.30;;;4.90;90.60;;;;;;5060216;28;20213;-85
2021/04/12 12:33:33;;;;;;;3.43;3.13;;;5.60;89.60;;;;;;5057998;28;20213;-86
2021/04/12 12:54:45;;;;;;;4.97;4.57;;;5.20;90.40;;;;;;6177275;22;20191;-86
2021/04/12 12:57:36;;;;;;;3.70;2.90;;;5.30;90.30;;;;;;5019104;28;20278;-84
2021/04/12 13:00:38;;;;;;;3.10;2.80;;;5.10;86.00;;;;;;5020853;28;20693;-86
2021/04/12 13:06:25;;;;;;;3.87;3.10;;;5.20;86.80;;;;;;5038178;28;20213;-86
2021/04/12 13:08:53;;;;;;;3.13;2.83;;;5.30;85.60;;;;;;5039046;28;20206;-86
2021/04/12 13:11:50;;;;;;;5.33;3.30;;;5.40;82.60;;;;;;5039415;28;20527;-86
2021/04/12 13:18:07;;;;;;;3.87;3.27;;;5.50;84.00;;;;;;5037870;28;20304;-86
2021/04/12 13:24:30;;;;;;;4.60;3.20;;;6.00;82.40;;;;;;5037907;28;20234;-85
2021/04/12 13:27:03;;;;;;;4.23;2.80;;;6.10;83.10;;;;;;5037367;28;20194;-84
2021/04/12 13:29:37;;;;;;;3.00;2.70;;;5.90;81.20;;;;;;5036075;28;20238;-85
2021/04/12 13:32:12;;;;;;;3.60;2.77;;;5.80;81.40;;;;;;5038812;28;20223;-86
2021/04/12 13:38:56;;;;;;;3.20;2.90;;;5.90;81.40;;;;;;5035441;28;20186;-88
2021/04/12 13:41:25;;;;;;;3.13;2.83;;;6.00;82.50;;;;;;5017171;28;20194;-87
2021/04/12 13:51:02;;;;;;;3.43;3.00;;;5.90;80.40;;;;;;5007066;28;20196;-86
2021/04/12 13:53:34;;;;;;;6.33;2.80;;;5.40;84.30;;;;;;5001007;28;20223;-86
2021/04/12 13:56:42;;;;;;;5.93;3.07;;;5.10;86.40;;;;;;4997730;28;20274;-87
2021/04/12 13:59:33;;;;;;;3.30;2.80;;;4.80;88.90;;;;;;4999527;28;20573;-87
2021/04/12 14:02:05;;;;;;;4.47;3.10;;;4.70;90.80;;;;;;5033282;28;20193;-88
2021/04/12 14:04:38;;;;;;;3.37;3.07;;;4.60;90.60;;;;;;5050990;28;20203;-89
2021/04/12 14:07:11;;;;;;;3.80;3.40;;;4.60;90.90;;;;;;5025117;28;20210;-89
2021/04/12 14:09:40;;;;;;;4.00;3.37;;;4.80;91.90;;;;;;5011140;28;20281;-88
2021/04/12 14:12:14;;;;;;;4.03;3.50;;;5.10;90.70;;;;;;5010364;28;20258;-87
2021/04/12 14:14:47;;;;;;;3.80;3.43;;;5.10;90.40;;;;;;5015262;28;20226;-88
2021/04/12 14:17:23;;;;;;;3.73;3.23;;;5.10;89.00;;;;;;5015436;28;20661;-90
2021/04/12 14:19:52;;;;;;;3.60;3.27;;;5.20;90.20;;;;;;4996101;28;20231;-91
2021/04/12 14:25:18;;;;;;;3.20;2.90;;;4.90;90.50;;;;;;5001651;28;20219;-87
2021/04/12 14:28:07;;;;;;;4.27;3.40;;;4.80;90.00;;;;;;5013337;28;20191;-84
2021/04/12 14:30:40;;;;;;;5.60;3.60;;;4.70;91.00;;;;;;5003836;28;20207;-87
2021/04/12 14:33:08;;;;;;;4.60;3.57;;;4.90;91.40;;;;;;5002962;28;20223;-85
2021/04/12 14:35:40;;;;;;;4.27;3.70;;;5.00;91.20;;;;;;5006246;28;20277;-89
2021/04/12 14:38:21;;;;;;;4.00;3.60;;;5.10;91.30;;;;;;5003269;28;20243;-88
2021/04/12 14:40:52;;;;;;;4.47;3.30;;;5.00;90.60;;;;;;5001779;28;20256;-86
2021/04/12 14:43:29;;;;;;;3.37;3.07;;;4.80;90.40;;;;;;5012285;28;20262;-87
2021/04/12 14:46:23;;;;;;;3.80;3.50;;;4.90;90.90;;;;;;5009424;28;20216;-87
2021/04/12 14:48:55;;;;;;;4.67;3.37;;;4.80;91.10;;;;;;4997399;28;20223;-84
2021/04/12 14:51:24;;;;;;;3.87;3.47;;;4.80;91.10;;;;;;5010059;28;20214;-87
2021/04/12 14:54:12;;;;;;;5.23;4.43;;;4.90;91.40;;;;;;5009496;28;20752;-85
2021/04/12 14:56:45;;;;;;;4.27;3.87;;;5.00;91.50;;;;;;5005904;28;20234;-85
2021/04/12 14:59:31;;;;;;;4.87;4.20;;;5.20;91.10;;;;;;5007753;28;20223;-88
2021/04/12 15:02:24;;;;;;;4.97;4.07;;;5.10;91.50;;;;;;5005674;28;20203;-86
2021/04/12 15:05:20;;;;;;;5.63;4.57;;;5.00;91.20;;;;;;5014765;28;20226;-86
2021/04/12 15:11:50;;;;;;;6.07;5.13;;;4.40;91.30;;;;;;5005204;28;20182;-86
2021/04/12 15:14:24;;;;;;;4.73;4.00;;;4.20;92.00;;;;;;5000271;28;20207;-87
2021/04/12 15:16:53;;;;;;;5.00;4.50;;;4.10;92.10;;;;;;5001605;28;20212;-86
2021/04/12 15:19:30;;;;;;;6.17;4.33;;;4.10;92.10;;;;;;4998915;28;20227;-90
2021/04/12 15:22:20;;;;;;;4.60;4.13;;;4.10;92.70;;;;;;5003325;28;20195;-89
2021/04/12 15:24:50;;;;;;;4.97;4.17;;;4.20;92.30;;;;;;4998764;28;20235;-89
2021/04/12 15:27:20;;;;;;;5.30;4.33;;;4.00;92.00;;;;;;5001991;28;20203;-90
2021/04/12 15:29:51;;;;;;;5.23;4.33;;;4.20;92.20;;;;;;5008872;28;20227;-90
2021/04/12 15:32:26;;;;;;;6.47;4.63;;;4.30;92.10;;;;;;5007401;28;20604;-90
2021/04/12 15:34:55;;;;;;;4.67;4.10;;;4.40;91.80;;;;;;5023489;28;20217;-88
2021/04/12 15:37:25;;;;;;;4.50;4.00;;;4.30;91.90;;;;;;5036339;28;20595;-86
2021/04/12 15:40:12;;;;;;;4.23;3.83;;;4.20;91.80;;;;;;5034391;28;20276;-87
2021/04/12 15:46:06;;;;;;;5.70;3.93;;;4.20;91.80;;;;;;5035171;28;20169;-87
2021/04/12 15:52:07;;;;;;;6.03;5.10;;;4.10;91.90;;;;;;4996214;28;20178;-85
2021/04/12 15:54:57;;;;;;;5.50;4.13;;;4.30;92.30;;;;;;5009286;28;20230;-87
2021/04/12 15:57:25;;;;;;;4.93;3.97;;;4.40;92.10;;;;;;5017715;28;20249;-86
2021/04/12 16:03:19;;;;;;;4.97;4.53;;;4.20;91.90;;;;;;5013492;28;20238;-85
2021/04/12 16:05:54;;;;;;;5.57;4.10;;;4.10;92.20;;;;;;5013835;28;20209;-88
2021/04/12 16:11:49;;;;;;;5.40;4.30;;;3.80;93.30;;;;;;5016075;28;20167;-87
2021/04/12 16:14:22;;;;;;;4.97;4.37;;;3.60;93.50;;;;;;5017122;28;20227;-86
2021/04/12 16:17:36;;;;;;;4.73;4.30;;;3.40;93.50;;;;;;5016619;28;20215;-88
2021/04/12 16:23:36;;;;;;;5.20;4.70;;;3.30;94.10;;;;;;5017196;28;20218;-88
2021/04/12 16:29:32;;;;;;;6.37;5.43;;;3.30;94.70;;;;;;5018503;28;20626;-89
2021/04/12 16:32:03;;;;;;;5.63;4.97;;;3.30;94.70;;;;;;5018614;28;20187;-88
2021/04/12 16:34:33;;;;;;;6.00;5.20;;;3.40;94.70;;;;;;5018452;28;20318;-86
2021/04/12 16:37:17;;;;;;;6.37;5.77;;;3.50;94.70;;;;;;5013697;28;20223;-88
2021/04/12 16:40:03;;;;;;;6.60;5.87;;;3.70;94.80;;;;;;4999067;28;20227;-87
2021/04/12 16:42:34;;;;;;;7.33;5.87;;;3.70;94.20;;;;;;5001297;28;20631;-84
2021/04/12 16:45:06;;;;;;;6.33;5.70;;;3.80;94.30;;;;;;5001343;28;20236;-87
2021/04/12 16:47:41;;;;;;;6.30;5.67;;;3.80;94.70;;;;;;5007401;28;20652;-86
2021/04/12 16:50:15;;;;;;;7.33;5.90;;;3.90;94.00;;;;;;5000394;28;20771;-88
2021/04/12 16:52:45;;;;;;;7.03;6.00;;;3.70;93.20;;;;;;5008361;28;20196;-83
2021/04/12 16:55:20;;;;;;;7.20;6.00;;;3.70;93.60;;;;;;5007435;28;20227;-84
2021/04/12 16:58:08;;;;;;;10.13;6.87;;;3.60;93.60;;;;;;5005020;28;20658;-85
2021/04/12 17:00:42;;;;;;;6.93;6.17;;;3.50;93.40;;;;;;5005742;28;20210;-85
2021/04/12 17:03:22;;;;;;;7.87;6.73;;;3.50;93.80;;;;;;5003544;28;20622;-86
2021/04/12 17:05:53;;;;;;;7.87;6.67;;;3.50;93.70;;;;;;5006503;28;20297;-85
2021/04/12 17:08:34;;;;;;;8.57;7.03;;;3.50;94.10;;;;;;4999468;28;20228;-83
2021/04/12 17:11:02;;;;;;;8.23;6.57;;;3.50;94.00;;;;;;5002933;28;20200;-85
2021/04/12 17:13:32;;;;;;;7.53;6.73;;;3.40;94.00;;;;;;5002630;28;20235;-85
2021/04/12 17:16:05;;;;;;;8.83;6.90;;;3.40;94.00;;;;;;5003612;28;20226;-87
2021/04/12 17:18:38;;;;;;;8.20;7.00;;;3.50;94.30;;;;;;5000427;28;20227;-85
2021/04/12 17:21:12;;;;;;;10.83;7.30;;;3.60;94.50;;;;;;5002346;28;20203;-84
2021/04/12 17:23:46;;;;;;;8.33;7.20;;;3.50;93.90;;;;;;5002892;28;20223;-84
2021/04/12 17:26:15;;;;;;;8.37;7.07;;;3.50;94.20;;;;;;5004662;28;20230;-84
2021/04/12 17:28:48;;;;;;;9.33;7.00;;;3.40;93.60;;;;;;5003198;28;20289;-85
2021/04/12 17:31:18;;;;;;;7.50;6.77;;;3.30;94.30;;;;;;5001606;28;20210;-85
2021/04/12 17:33:53;;;;;;;9.50;8.30;;;3.30;94.10;;;;;;5000075;28;20241;-84
2021/04/12 17:36:22;;;;;;;11.40;8.40;;;3.30;94.40;;;;;;4996716;28;20229;-84
2021/04/12 17:38:51;;;;;;;9.20;8.03;;;3.20;94.20;;;;;;4999211;28;20226;-86